Time;durP1;ratioP1;P1;durP2;ratioP2;P2;SDS_P1;SDS_P2;PMS_P1;PMS_P2;Temp;Humidity;BMP_temperature;BMP_pressure;BME280_temperature;BME280_humidity;BME280_pressure;Samples;Min_cycle;Max_cycle;Signal;HPM_P1;HPM_P2
2023/01/04 00:04:42;;;;;;;2.60;1.58;;;;;;;;;;12941488;22;20027;-91
2023/01/04 00:09:46;;;;;;;3.88;1.92;;;;;;;;;;12951565;22;20024;-87
2023/01/04 00:14:49;;;;;;;2.42;1.45;;;;;;;;;;12977301;22;20481;-88
2023/01/04 00:19:54;;;;;;;2.10;1.27;;;;;;;;;;12964389;22;20015;-87
2023/01/04 00:24:58;;;;;;;3.33;1.80;;;;;;;;;;12950509;22;20255;-88
2023/01/04 00:30:04;;;;;;;2.90;1.80;;;;;;;;;;12938023;22;20111;-85
2023/01/04 00:35:09;;;;;;;2.70;1.40;;;;;;;;;;12940375;22;20067;-85
2023/01/04 00:40:13;;;;;;;1.77;1.30;;;;;;;;;;12939225;22;20875;-85
2023/01/04 00:45:16;;;;;;;3.08;1.50;;;;;;;;;;12948922;22;20020;-87
2023/01/04 00:50:21;;;;;;;2.00;1.20;;;;;;;;;;12948837;22;20425;-86
2023/01/04 00:55:24;;;;;;;1.50;1.08;;;;;;;;;;12967135;22;20533;-85
2023/01/04 01:00:28;;;;;;;3.85;1.73;;;;;;;;;;12939348;22;20027;-86
2023/01/04 01:05:35;;;;;;;2.88;1.40;;;;;;;;;;12940412;22;20047;-86
2023/01/04 01:10:39;;;;;;;2.80;1.55;;;;;;;;;;12968665;22;20365;-86
2023/01/04 01:15:42;;;;;;;2.97;1.52;;;;;;;;;;12948595;22;20122;-86
2023/01/04 01:20:47;;;;;;;3.97;1.52;;;;;;;;;;12978523;22;20150;-86
2023/01/04 01:25:50;;;;;;;3.13;1.33;;;;;;;;;;12978733;22;20062;-86
2023/01/04 01:30:54;;;;;;;4.78;1.52;;;;;;;;;;12962835;22;20043;-86
2023/01/04 01:36:01;;;;;;;2.53;1.73;;;;;;;;;;12954520;22;20106;-85
2023/01/04 01:41:06;;;;;;;3.75;1.60;;;;;;;;;;12964816;22;20400;-92
2023/01/04 01:46:10;;;;;;;1.73;1.33;;;;;;;;;;12960819;22;20023;-87
2023/01/04 01:51:17;;;;;;;1.90;1.40;;;;;;;;;;12967142;22;20027;-91
2023/01/04 01:56:20;;;;;;;2.08;1.38;;;;;;;;;;12966875;22;20024;-92
2023/01/04 02:01:26;;;;;;;1.60;1.17;;;;;;;;;;12968775;22;20028;-92
2023/01/04 02:06:35;;;;;;;2.00;1.35;;;;;;;;;;12959512;22;20042;-87
2023/01/04 02:11:38;;;;;;;3.08;1.92;;;;;;;;;;12986086;22;20032;-85
2023/01/04 02:16:55;;;;;;;3.25;1.67;;;;;;;;;;12982433;22;20534;-92
2023/01/04 02:22:18;;;;;;;2.47;1.88;;;;;;;;;;12938328;22;20032;-88
2023/01/04 02:27:43;;;;;;;3.17;1.70;;;;;;;;;;12954029;22;20015;-87
2023/01/04 02:32:58;;;;;;;2.63;1.57;;;;;;;;;;12960873;22;20019;-86
2023/01/04 02:38:14;;;;;;;1.60;1.10;;;;;;;;;;12962254;22;20221;-86
2023/01/04 02:54:15;;;;;;;2.38;1.55;;;;;;;;;;12975531;22;20024;-87
2023/01/04 02:59:33;;;;;;;2.88;1.70;;;;;;;;;;12972365;22;20026;-85
2023/01/04 03:10:38;;;;;;;2.13;1.58;;;;;;;;;;12673848;23;20032;-88
2023/01/04 03:15:44;;;;;;;2.63;1.80;;;;;;;;;;12900067;22;20206;-85
2023/01/04 03:20:50;;;;;;;3.35;1.85;;;;;;;;;;12944659;22;20710;-85
2023/01/04 03:36:57;;;;;;;3.23;1.63;;;;;;;;;;12949266;22;20020;-85
2023/01/04 03:52:55;;;;;;;1.63;1.52;;;;;;;;;;12945909;22;20592;-86
2023/01/04 03:57:59;;;;;;;;;;;;;;;;;;12967474;22;20020;-86
2023/01/04 04:03:07;;;;;;;2.50;1.30;;;;;;;;;;12949554;22;19915;-86
2023/01/04 04:08:27;;;;;;;2.53;1.60;;;;;;;;;;12949455;22;20031;-85
2023/01/04 04:13:31;;;;;;;2.83;1.55;;;;;;;;;;12939976;22;20043;-86
2023/01/04 04:18:34;;;;;;;3.63;2.00;;;;;;;;;;12944646;22;20115;-87
2023/01/04 04:23:39;;;;;;;3.90;1.88;;;;;;;;;;12947827;22;20036;-87
2023/01/04 04:28:43;;;;;;;3.53;1.92;;;;;;;;;;12948701;22;20058;-88
2023/01/04 04:33:48;;;;;;;2.60;1.83;;;;;;;;;;12948226;22;20034;-88
2023/01/04 04:38:53;;;;;;;2.83;1.95;;;;;;;;;;12950128;22;20025;-87
2023/01/04 04:43:58;;;;;;;2.78;1.75;;;;;;;;;;12945969;22;20030;-90
2023/01/04 04:49:02;;;;;;;4.30;2.15;;;;;;;;;;12948114;22;20047;-87
2023/01/04 04:54:10;;;;;;;3.45;1.73;;;;;;;;;;12949345;22;20055;-89
2023/01/04 04:59:13;;;;;;;2.35;1.88;;;;;;;;;;12950751;22;20103;-91
2023/01/04 05:04:18;;;;;;;4.30;2.10;;;;;;;;;;12926242;22;20516;-88
2023/01/04 05:09:23;;;;;;;1.65;1.40;;;;;;;;;;12950793;22;20023;-91
2023/01/04 05:14:26;;;;;;;3.08;1.48;;;;;;;;;;12950246;22;20032;-84
2023/01/04 05:19:30;;;;;;;3.20;2.00;;;;;;;;;;12941344;22;20037;-85
2023/01/04 05:24:35;;;;;;;1.77;1.50;;;;;;;;;;12941920;22;20027;-85
2023/01/04 05:34:59;;;;;;;2.58;1.40;;;;;;;;;;12944462;22;20024;-84
2023/01/04 05:40:06;;;;;;;3.50;1.20;;;;;;;;;;12940037;22;20023;-85
2023/01/04 05:45:10;;;;;;;3.70;1.60;;;;;;;;;;12946905;22;20043;-85
2023/01/04 05:50:13;;;;;;;1.92;0.88;;;;;;;;;;12916672;22;20392;-83
2023/01/04 05:55:18;;;;;;;2.95;1.20;;;;;;;;;;12957195;22;20032;-89
2023/01/04 06:00:22;;;;;;;2.70;1.30;;;;;;;;;;12956718;22;20353;-87
2023/01/04 06:05:26;;;;;;;2.15;1.10;;;;;;;;;;12980726;22;20028;-86
2023/01/04 06:10:30;;;;;;;3.33;1.10;;;;;;;;;;12939818;22;20027;-84
2023/01/04 06:15:34;;;;;;;0.73;0.55;;;;;;;;;;12940934;22;20023;-84
2023/01/04 06:20:40;;;;;;;1.83;1.00;;;;;;;;;;12944359;22;20212;-90
2023/01/04 06:25:45;;;;;;;0.63;0.63;;;;;;;;;;12950679;22;20572;-86
2023/01/04 06:30:48;;;;;;;0.30;0.30;;;;;;;;;;12952298;22;20225;-86
2023/01/04 06:35:55;;;;;;;0.82;0.63;;;;;;;;;;12953346;22;20449;-90
2023/01/04 06:41:00;;;;;;;0.55;0.52;;;;;;;;;;12961642;22;20039;-86
2023/01/04 06:46:04;;;;;;;1.10;0.50;;;;;;;;;;12951869;22;20562;-88
2023/01/04 06:51:08;;;;;;;0.73;0.50;;;;;;;;;;12963415;22;20028;-87
2023/01/04 06:56:13;;;;;;;1.02;0.63;;;;;;;;;;12968635;22;20024;-87
2023/01/04 07:01:16;;;;;;;0.65;0.60;;;;;;;;;;12969119;22;20457;-87
2023/01/04 07:06:20;;;;;;;0.77;0.50;;;;;;;;;;12967456;22;20023;-88
2023/01/04 07:11:24;;;;;;;0.68;0.40;;;;;;;;;;12971492;22;20030;-87
2023/01/04 07:16:28;;;;;;;0.70;0.70;;;;;;;;;;12968887;22;20024;-88
2023/01/04 07:21:31;;;;;;;0.63;0.60;;;;;;;;;;12984564;22;20031;-85
2023/01/04 07:26:36;;;;;;;1.00;0.40;;;;;;;;;;12952442;22;20103;-88
2023/01/04 07:31:40;;;;;;;0.57;0.50;;;;;;;;;;12966831;22;20015;-87
2023/01/04 07:36:44;;;;;;;0.40;0.40;;;;;;;;;;12971956;22;20405;-88
2023/01/04 07:41:49;;;;;;;0.73;0.40;;;;;;;;;;13001018;22;20024;-89
2023/01/04 07:46:57;;;;;;;0.40;0.40;;;;;;;;;;12977686;22;20449;-92
2023/01/04 07:52:01;;;;;;;0.50;0.50;;;;;;;;;;12970143;22;20048;-88
2023/01/04 07:57:06;;;;;;;0.88;0.60;;;;;;;;;;13000932;22;20028;-88
2023/01/04 08:02:11;;;;;;;1.85;0.60;;;;;;;;;;12970586;22;20094;-89
2023/01/04 08:07:14;;;;;;;0.75;0.50;;;;;;;;;;12974403;22;20028;-89
2023/01/04 08:12:19;;;;;;;1.27;0.52;;;;;;;;;;12994070;22;20038;-87
2023/01/04 08:17:23;;;;;;;0.50;0.40;;;;;;;;;;12975483;22;20023;-87
2023/01/04 08:22:26;;;;;;;0.30;0.30;;;;;;;;;;12933985;22;20020;-85
2023/01/04 08:27:31;;;;;;;0.20;0.20;;;;;;;;;;12963060;22;20023;-86
2023/01/04 08:32:35;;;;;;;0.50;0.50;;;;;;;;;;12976507;22;20098;-88
2023/01/04 08:37:39;;;;;;;0.75;0.47;;;;;;;;;;12996702;22;20023;-88
2023/01/04 08:42:44;;;;;;;0.68;0.43;;;;;;;;;;12954692;22;20066;-86
2023/01/04 08:47:47;;;;;;;0.40;0.40;;;;;;;;;;12913407;22;20030;-86
2023/01/04 08:52:53;;;;;;;0.40;0.40;;;;;;;;;;12955788;22;20043;-85
2023/01/04 08:58:00;;;;;;;0.55;0.52;;;;;;;;;;12937435;22;20111;-86
2023/01/04 09:03:06;;;;;;;0.30;0.30;;;;;;;;;;12940253;22;20039;-85
2023/01/04 09:08:10;;;;;;;0.55;0.40;;;;;;;;;;12935870;22;20179;-87
2023/01/04 09:13:15;;;;;;;0.82;0.40;;;;;;;;;;12939465;22;20012;-86
2023/01/04 09:18:18;;;;;;;0.70;0.47;;;;;;;;;;12959244;22;20074;-86
2023/01/04 09:23:38;;;;;;;0.40;0.40;;;;;;;;;;12953873;22;20050;-87
2023/01/04 09:28:44;;;;;;;0.47;0.35;;;;;;;;;;12954485;22;20039;-86
2023/01/04 09:33:48;;;;;;;2.55;0.60;;;;;;;;;;12941527;22;20058;-87
2023/01/04 09:39:12;;;;;;;0.73;0.60;;;;;;;;;;12939370;22;20024;-88
2023/01/04 09:44:33;;;;;;;0.50;0.40;;;;;;;;;;12951594;22;20023;-86
2023/01/04 09:50:01;;;;;;;0.43;0.40;;;;;;;;;;12964727;22;20670;-86
2023/01/04 09:55:14;;;;;;;0.40;0.40;;;;;;;;;;12971403;22;20081;-92
2023/01/04 10:00:23;;;;;;;0.45;0.40;;;;;;;;;;12964351;22;20019;-91
2023/01/04 10:05:28;;;;;;;0.68;0.30;;;;;;;;;;12954050;22;20028;-86
2023/01/04 10:10:48;;;;;;;0.57;0.38;;;;;;;;;;12964894;22;20019;-86
2023/01/04 10:16:03;;;;;;;0.75;0.40;;;;;;;;;;12954785;22;20074;-90
2023/01/04 10:21:33;;;;;;;0.43;0.40;;;;;;;;;;12991836;22;20556;-89
2023/01/04 10:26:43;;;;;;;0.28;0.22;;;;;;;;;;12950339;22;20027;-88
2023/01/04 10:31:53;;;;;;;0.30;0.30;;;;;;;;;;12969806;22;20488;-89
2023/01/04 10:36:59;;;;;;;0.32;0.25;;;;;;;;;;12969324;22;20031;-91
2023/01/04 10:42:17;;;;;;;0.70;0.32;;;;;;;;;;12970276;22;20077;-86
2023/01/04 10:47:32;;;;;;;0.55;0.20;;;;;;;;;;12940912;22;20739;-87
2023/01/04 10:52:40;;;;;;;0.50;0.38;;;;;;;;;;12937649;22;20089;-86
2023/01/04 10:57:55;;;;;;;0.20;0.20;;;;;;;;;;12966269;22;20023;-87
2023/01/04 11:03:07;;;;;;;0.63;0.50;;;;;;;;;;12921855;22;20071;-88
2023/01/04 11:08:16;;;;;;;0.57;0.40;;;;;;;;;;12942669;22;20416;-89
2023/01/04 11:13:20;;;;;;;0.20;0.20;;;;;;;;;;12968908;22;20032;-89
2023/01/04 11:18:28;;;;;;;0.28;0.28;;;;;;;;;;12958688;22;20059;-87
2023/01/04 11:23:31;;;;;;;1.33;0.32;;;;;;;;;;12947851;22;20473;-86
2023/01/04 11:28:40;;;;;;;0.50;0.40;;;;;;;;;;12939474;22;20054;-85
2023/01/04 11:34:03;;;;;;;0.30;0.30;;;;;;;;;;12946430;22;20094;-86
2023/01/04 11:39:24;;;;;;;0.22;0.22;;;;;;;;;;12937632;22;20319;-87
2023/01/04 11:44:28;;;;;;;2.05;0.30;;;;;;;;;;12944027;22;20189;-87
2023/01/04 11:49:36;;;;;;;0.98;0.40;;;;;;;;;;12937574;22;20107;-86
2023/01/04 11:54:39;;;;;;;0.63;0.40;;;;;;;;;;12956566;22;20265;-85
2023/01/04 11:59:43;;;;;;;0.80;0.40;;;;;;;;;;12963952;22;20023;-89
2023/01/04 12:04:48;;;;;;;1.45;0.50;;;;;;;;;;12969532;22;20020;-89
2023/01/04 12:09:52;;;;;;;0.52;0.40;;;;;;;;;;12965165;22;20030;-88
2023/01/04 12:14:56;;;;;;;0.85;0.50;;;;;;;;;;12993161;22;20050;-90
2023/01/04 12:20:16;;;;;;;1.65;0.60;;;;;;;;;;12965881;22;20042;-89
2023/01/04 12:25:29;;;;;;;2.13;0.60;;;;;;;;;;12966444;22;20044;-89
2023/01/04 12:30:40;;;;;;;3.10;0.90;;;;;;;;;;12967500;22;20024;-92
2023/01/04 12:36:05;;;;;;;1.02;0.63;;;;;;;;;;12992819;22;20033;-89
2023/01/04 12:41:09;;;;;;;0.50;0.50;;;;;;;;;;12957744;22;20027;-91
2023/01/04 12:52:50;;;;;;;0.90;0.50;;;;;;;;;;12864323;22;20020;-87
2023/01/04 12:58:47;;;;;;;0.43;0.30;;;;;;;;;;12938481;22;20794;-86
2023/01/04 13:04:40;;;;;;;1.63;0.50;;;;;;;;;;12943840;22;20047;-86
2023/01/04 13:09:51;;;;;;;1.83;0.77;;;;;;;;;;12940917;22;20047;-87
2023/01/04 13:14:59;;;;;;;1.70;0.55;;;;;;;;;;12959893;22;20054;-87
2023/01/04 13:20:17;;;;;;;0.35;0.32;;;;;;;;;;12951809;22;20444;-89
2023/01/04 13:25:22;;;;;;;0.75;0.35;;;;;;;;;;12970565;22;20736;-89
2023/01/04 13:30:34;;;;;;;0.30;0.30;;;;;;;;;;12967006;22;20363;-89
2023/01/04 13:35:39;;;;;;;0.43;0.43;;;;;;;;;;12996231;22;20448;-90
2023/01/04 13:40:48;;;;;;;0.28;0.28;;;;;;;;;;12967242;22;20030;-88
2023/01/04 13:46:04;;;;;;;0.40;0.35;;;;;;;;;;12970559;22;20032;-88
2023/01/04 13:51:17;;;;;;;0.90;0.40;;;;;;;;;;12968461;22;20400;-90
2023/01/04 13:56:23;;;;;;;0.40;0.30;;;;;;;;;;12969390;22;20027;-90
2023/01/04 14:01:29;;;;;;;0.35;0.25;;;;;;;;;;12973089;22;20246;-87
2023/01/04 14:06:40;;;;;;;1.23;0.50;;;;;;;;;;12952597;22;20020;-87
2023/01/04 14:11:58;;;;;;;0.30;0.22;;;;;;;;;;12945673;22;20608;-84
2023/01/04 14:17:15;;;;;;;0.30;0.30;;;;;;;;;;12946244;22;20434;-84
2023/01/04 14:22:36;;;;;;;0.20;0.20;;;;;;;;;;12969697;22;20030;-84
2023/01/04 14:27:41;;;;;;;0.20;0.20;;;;;;;;;;12946261;22;20625;-84
2023/01/04 14:32:54;;;;;;;0.50;0.30;;;;;;;;;;12941874;22;20050;-84
2023/01/04 14:38:05;;;;;;;0.30;0.30;;;;;;;;;;12947870;22;20098;-86
2023/01/04 14:43:32;;;;;;;0.30;0.30;;;;;;;;;;12970589;22;20528;-87
2023/01/04 14:48:35;;;;;;;0.45;0.28;;;;;;;;;;12949101;22;20078;-87
2023/01/04 14:53:40;;;;;;;0.43;0.40;;;;;;;;;;12966257;22;20106;-84
2023/01/04 14:58:44;;;;;;;0.28;0.20;;;;;;;;;;12947171;22;20098;-84
2023/01/04 15:03:48;;;;;;;0.40;0.20;;;;;;;;;;12961159;22;20082;-84
2023/01/04 15:08:56;;;;;;;0.35;0.30;;;;;;;;;;12947426;22;20314;-84
2023/01/04 15:13:59;;;;;;;0.20;0.20;;;;;;;;;;12945867;22;20097;-84
2023/01/04 15:19:02;;;;;;;0.28;0.28;;;;;;;;;;12946146;22;20027;-84
2023/01/04 15:24:08;;;;;;;0.10;0.10;;;;;;;;;;12944603;22;20031;-85
2023/01/04 15:29:11;;;;;;;0.43;0.20;;;;;;;;;;12944697;22;20023;-84
2023/01/04 15:34:15;;;;;;;0.40;0.30;;;;;;;;;;12943636;22;20043;-84
2023/01/04 15:39:19;;;;;;;0.45;0.20;;;;;;;;;;12944755;22;20169;-84
2023/01/04 15:44:23;;;;;;;0.30;0.20;;;;;;;;;;12948229;22;20115;-87
2023/01/04 15:49:30;;;;;;;0.13;0.13;;;;;;;;;;12944673;22;20024;-84
2023/01/04 15:54:35;;;;;;;0.95;0.30;;;;;;;;;;12944543;22;20028;-88
2023/01/04 15:59:39;;;;;;;0.20;0.20;;;;;;;;;;12924998;22;20054;-89
2023/01/04 16:04:44;;;;;;;0.40;0.40;;;;;;;;;;12976517;22;20062;-86
2023/01/04 16:09:50;;;;;;;0.30;0.30;;;;;;;;;;12978113;22;20052;-87
2023/01/04 16:14:56;;;;;;;0.23;0.20;;;;;;;;;;12950195;22;20023;-88
2023/01/04 16:20:00;;;;;;;0.55;0.20;;;;;;;;;;12975564;22;20016;-84
2023/01/04 16:25:06;;;;;;;2.83;0.30;;;;;;;;;;12959365;22;20817;-84
2023/01/04 16:30:13;;;;;;;0.20;0.20;;;;;;;;;;12945945;22;20023;-84
2023/01/04 16:35:17;;;;;;;0.65;0.40;;;;;;;;;;12947052;22;20019;-84
2023/01/04 16:40:23;;;;;;;0.20;0.20;;;;;;;;;;12950005;22;20029;-87
2023/01/04 16:45:27;;;;;;;0.30;0.30;;;;;;;;;;12948145;22;20317;-88
2023/01/04 16:50:30;;;;;;;0.30;0.25;;;;;;;;;;12954381;22;20473;-88
2023/01/04 16:55:35;;;;;;;0.68;0.40;;;;;;;;;;12956567;22;20465;-92
2023/01/04 17:00:39;;;;;;;0.15;0.15;;;;;;;;;;12953312;22;20028;-85
2023/01/04 17:05:42;;;;;;;0.45;0.20;;;;;;;;;;12955625;22;20043;-89
2023/01/04 17:10:47;;;;;;;0.75;0.47;;;;;;;;;;12951220;22;20023;-87
2023/01/04 17:15:51;;;;;;;0.50;0.30;;;;;;;;;;12952000;22;20024;-85
2023/01/04 17:20:56;;;;;;;0.30;0.28;;;;;;;;;;12940684;22;20455;-85
2023/01/04 17:26:12;;;;;;;0.38;0.38;;;;;;;;;;12950342;22;20710;-91
2023/01/04 17:31:18;;;;;;;2.10;0.80;;;;;;;;;;12950240;22;20043;-85
2023/01/04 17:36:22;;;;;;;0.20;0.20;;;;;;;;;;12943098;22;20201;-85
2023/01/04 17:41:28;;;;;;;0.43;0.30;;;;;;;;;;12944179;22;20024;-85
2023/01/04 17:46:34;;;;;;;0.47;0.30;;;;;;;;;;12943403;22;20405;-85
2023/01/04 17:51:38;;;;;;;0.60;0.43;;;;;;;;;;12941431;22;20665;-84
2023/01/04 17:56:43;;;;;;;0.80;0.50;;;;;;;;;;12948454;22;20507;-85
2023/01/04 18:01:47;;;;;;;0.40;0.30;;;;;;;;;;12944835;22;20389;-84
2023/01/04 18:06:50;;;;;;;0.93;0.85;;;;;;;;;;12968494;22;20022;-84
2023/01/04 18:11:55;;;;;;;0.90;0.80;;;;;;;;;;12945524;22;20038;-85
2023/01/04 18:16:59;;;;;;;1.05;0.60;;;;;;;;;;12942644;22;20020;-85
2023/01/04 18:22:05;;;;;;;1.23;0.70;;;;;;;;;;12948728;22;20102;-85
2023/01/04 18:27:13;;;;;;;0.40;0.40;;;;;;;;;;12946180;22;20023;-85
2023/01/04 18:32:26;;;;;;;0.30;0.30;;;;;;;;;;12944869;22;20031;-84
2023/01/04 18:37:30;;;;;;;0.30;0.30;;;;;;;;;;12969899;22;20023;-86
2023/01/04 18:42:36;;;;;;;6.32;3.42;;;;;;;;;;12965538;22;20151;-86
2023/01/04 18:47:39;;;;;;;1.93;1.17;;;;;;;;;;12944057;22;20075;-85
2023/01/04 18:52:43;;;;;;;1.40;0.82;;;;;;;;;;12942372;22;20034;-85
2023/01/04 18:57:48;;;;;;;0.55;0.50;;;;;;;;;;12943508;22;20026;-85
2023/01/04 19:02:51;;;;;;;0.95;0.50;;;;;;;;;;12946989;22;20412;-85
2023/01/04 19:07:55;;;;;;;0.80;0.68;;;;;;;;;;12970496;22;20019;-85
2023/01/04 19:13:00;;;;;;;1.35;0.60;;;;;;;;;;12948143;22;20445;-90
2023/01/04 19:18:03;;;;;;;0.57;0.57;;;;;;;;;;12972416;22;20398;-85
2023/01/04 19:23:07;;;;;;;0.60;0.40;;;;;;;;;;12965798;22;20020;-85
2023/01/04 19:28:13;;;;;;;0.65;0.63;;;;;;;;;;12944858;22;20099;-86
2023/01/04 19:33:17;;;;;;;0.40;0.40;;;;;;;;;;12945394;22;20400;-86
2023/01/04 19:38:20;;;;;;;0.70;0.50;;;;;;;;;;12943950;22;20034;-86
2023/01/04 19:43:26;;;;;;;1.08;0.50;;;;;;;;;;12946707;22;20054;-86
2023/01/04 19:48:31;;;;;;;0.73;0.45;;;;;;;;;;12918789;22;20035;-86
2023/01/04 19:53:35;;;;;;;1.27;0.50;;;;;;;;;;12944853;22;20107;-88
2023/01/04 19:58:40;;;;;;;0.63;0.43;;;;;;;;;;12950229;22;20531;-89
2023/01/04 20:03:44;;;;;;;0.52;0.47;;;;;;;;;;12967849;22;20034;-88
2023/01/04 20:08:48;;;;;;;1.00;0.68;;;;;;;;;;12944804;22;20046;-85
2023/01/04 20:13:57;;;;;;;0.47;0.40;;;;;;;;;;12962956;22;20020;-88
2023/01/04 20:19:01;;;;;;;0.28;0.20;;;;;;;;;;12951006;22;20019;-90
2023/01/04 20:24:05;;;;;;;0.30;0.30;;;;;;;;;;12976878;22;20030;-88
2023/01/04 20:29:11;;;;;;;3.47;0.55;;;;;;;;;;12947562;22;20061;-87
2023/01/04 20:34:14;;;;;;;0.57;0.43;;;;;;;;;;12949562;22;20070;-86
2023/01/04 20:39:18;;;;;;;0.98;0.70;;;;;;;;;;12965823;22;20023;-87
2023/01/04 20:44:23;;;;;;;1.52;0.43;;;;;;;;;;12948782;22;20341;-87
2023/01/04 20:49:27;;;;;;;1.42;0.50;;;;;;;;;;12946017;22;20082;-86
2023/01/04 20:54:30;;;;;;;0.75;0.40;;;;;;;;;;12948403;22;20043;-88
2023/01/04 20:59:35;;;;;;;2.13;0.60;;;;;;;;;;12952503;22;20030;-88
2023/01/04 21:04:44;;;;;;;2.15;0.70;;;;;;;;;;12944554;22;20409;-86
2023/01/04 21:09:48;;;;;;;2.90;1.10;;;;;;;;;;12945331;22;20102;-87
2023/01/04 21:14:55;;;;;;;1.90;0.50;;;;;;;;;;12950225;22;20094;-86
2023/01/04 21:20:02;;;;;;;1.63;1.08;;;;;;;;;;12975702;22;20023;-86
2023/01/04 21:25:06;;;;;;;1.42;0.60;;;;;;;;;;12920369;22;20020;-86
2023/01/04 21:30:12;;;;;;;1.95;0.73;;;;;;;;;;12958187;22;20078;-89
2023/01/04 21:35:16;;;;;;;;;;;;;;;;;;12957246;22;20019;-88
2023/01/04 21:40:22;;;;;;;3.72;0.70;;;;;;;;;;12954221;22;20123;-86
2023/01/04 21:45:27;;;;;;;0.70;0.55;;;;;;;;;;12948709;22;20030;-86
2023/01/04 21:50:31;;;;;;;1.27;0.60;;;;;;;;;;12952855;22;20278;-89
2023/01/04 21:55:34;;;;;;;1.92;0.60;;;;;;;;;;12957024;22;20023;-88
2023/01/04 22:00:45;;;;;;;0.88;0.57;;;;;;;;;;12953713;22;20034;-88
2023/01/04 22:05:49;;;;;;;2.17;0.60;;;;;;;;;;12953244;22;20023;-88
2023/01/04 22:10:54;;;;;;;0.47;0.38;;;;;;;;;;12952049;22;20023;-87
2023/01/04 22:15:59;;;;;;;0.60;0.45;;;;;;;;;;12953845;22;20024;-87
2023/01/04 22:21:04;;;;;;;0.60;0.40;;;;;;;;;;12957562;22;20044;-89
2023/01/04 22:26:08;;;;;;;0.75;0.45;;;;;;;;;;12984016;22;20342;-87
2023/01/04 22:31:14;;;;;;;0.50;0.30;;;;;;;;;;12981981;22;20035;-88
2023/01/04 22:36:18;;;;;;;0.73;0.50;;;;;;;;;;12964224;22;20424;-87
2023/01/04 22:41:26;;;;;;;0.65;0.40;;;;;;;;;;12958587;22;20076;-89
2023/01/04 22:46:33;;;;;;;6.70;2.53;;;;;;;;;;12955670;22;20015;-86
2023/01/04 22:51:40;;;;;;;7.15;3.97;;;;;;;;;;12950919;22;20035;-85
2023/01/04 22:56:43;;;;;;;6.20;3.33;;;;;;;;;;12956683;22;20098;-86
2023/01/04 23:01:48;;;;;;;3.53;1.98;;;;;;;;;;12978095;22;20027;-87
2023/01/04 23:06:52;;;;;;;1.88;1.38;;;;;;;;;;12951496;22;20098;-86
2023/01/04 23:11:56;;;;;;;1.02;0.50;;;;;;;;;;12955466;22;20736;-88
2023/01/04 23:17:00;;;;;;;0.85;0.43;;;;;;;;;;12952942;22;20035;-86
2023/01/04 23:22:04;;;;;;;1.52;0.80;;;;;;;;;;12950273;22;20031;-89
2023/01/04 23:27:07;;;;;;;0.50;0.40;;;;;;;;;;12974417;22;20749;-87
2023/01/04 23:32:12;;;;;;;1.20;0.30;;;;;;;;;;12922450;22;20511;-86
2023/01/04 23:37:16;;;;;;;0.45;0.40;;;;;;;;;;12973999;22;20058;-86
2023/01/04 23:42:20;;;;;;;0.38;0.30;;;;;;;;;;12946436;22;20579;-84
2023/01/04 23:47:25;;;;;;;0.85;0.30;;;;;;;;;;12973945;22;20357;-85
2023/01/04 23:52:28;;;;;;;0.35;0.30;;;;;;;;;;12946061;22;20035;-86
2023/01/04 23:57:31;;;;;;;0.60;0.17;;;;;;;;;;12971632;22;20030;-86
